sensor_id;sensor_type;location;lat;lon;timestamp;temperature;humidity
4376;DHT22;2202;50.866;12.750;2023-04-24T00:01:07;10.90;95.50
4376;DHT22;2202;50.866;12.750;2023-04-24T00:03:34;10.90;95.30
4376;DHT22;2202;50.866;12.750;2023-04-24T00:06:01;10.90;95.20
4376;DHT22;2202;50.866;12.750;2023-04-24T00:08:30;10.90;95.40
4376;DHT22;2202;50.866;12.750;2023-04-24T00:10:57;10.80;95.40
4376;DHT22;2202;50.866;12.750;2023-04-24T00:13:24;10.80;95.50
4376;DHT22;2202;50.866;12.750;2023-04-24T00:15:51;10.90;95.50
4376;DHT22;2202;50.866;12.750;2023-04-24T00:18:18;10.90;95.60
4376;DHT22;2202;50.866;12.750;2023-04-24T00:20:44;10.90;95.60
4376;DHT22;2202;50.866;12.750;2023-04-24T00:23:12;10.80;95.60
4376;DHT22;2202;50.866;12.750;2023-04-24T00:25:40;10.80;95.70
4376;DHT22;2202;50.866;12.750;2023-04-24T00:28:07;10.80;95.80
4376;DHT22;2202;50.866;12.750;2023-04-24T00:30:34;10.80;95.80
4376;DHT22;2202;50.866;12.750;2023-04-24T00:33:01;10.80;95.90
4376;DHT22;2202;50.866;12.750;2023-04-24T00:35:28;10.70;96.00
4376;DHT22;2202;50.866;12.750;2023-04-24T00:37:55;10.70;96.10
4376;DHT22;2202;50.866;12.750;2023-04-24T00:40:22;10.70;96.30
4376;DHT22;2202;50.866;12.750;2023-04-24T00:42:50;10.60;96.50
4376;DHT22;2202;50.866;12.750;2023-04-24T00:45:17;10.50;96.80
4376;DHT22;2202;50.866;12.750;2023-04-24T00:47:45;10.50;96.90
4376;DHT22;2202;50.866;12.750;2023-04-24T00:50:14;10.50;96.90
4376;DHT22;2202;50.866;12.750;2023-04-24T00:52:41;10.50;97.00
4376;DHT22;2202;50.866;12.750;2023-04-24T00:55:09;10.60;96.70
4376;DHT22;2202;50.866;12.750;2023-04-24T00:57:36;10.60;96.60
4376;DHT22;2202;50.866;12.750;2023-04-24T01:00:06;10.60;96.40
4376;DHT22;2202;50.866;12.750;2023-04-24T01:02:36;10.50;96.50
4376;DHT22;2202;50.866;12.750;2023-04-24T01:05:06;10.40;96.70
4376;DHT22;2202;50.866;12.750;2023-04-24T01:07:33;10.40;96.70
4376;DHT22;2202;50.866;12.750;2023-04-24T01:10:01;10.50;96.60
4376;DHT22;2202;50.866;12.750;2023-04-24T01:12:28;10.40;96.70
4376;DHT22;2202;50.866;12.750;2023-04-24T01:14:56;10.40;96.90
4376;DHT22;2202;50.866;12.750;2023-04-24T01:17:24;10.40;96.80
4376;DHT22;2202;50.866;12.750;2023-04-24T01:19:51;10.40;96.90
4376;DHT22;2202;50.866;12.750;2023-04-24T01:22:20;10.30;96.90
4376;DHT22;2202;50.866;12.750;2023-04-24T01:24:47;10.30;97.10
4376;DHT22;2202;50.866;12.750;2023-04-24T01:27:14;10.30;97.10
4376;DHT22;2202;50.866;12.750;2023-04-24T01:29:41;10.30;97.10
4376;DHT22;2202;50.866;12.750;2023-04-24T01:32:08;10.30;97.00
4376;DHT22;2202;50.866;12.750;2023-04-24T01:34:35;10.40;96.90
4376;DHT22;2202;50.866;12.750;2023-04-24T01:37:02;10.40;96.70
4376;DHT22;2202;50.866;12.750;2023-04-24T01:39:32;10.50;96.30
4376;DHT22;2202;50.866;12.750;2023-04-24T01:41:59;10.60;96.00
4376;DHT22;2202;50.866;12.750;2023-04-24T01:44:28;10.60;95.70
4376;DHT22;2202;50.866;12.750;2023-04-24T01:46:55;10.70;95.30
4376;DHT22;2202;50.866;12.750;2023-04-24T01:49:22;10.60;95.20
4376;DHT22;2202;50.866;12.750;2023-04-24T01:51:48;10.60;95.40
4376;DHT22;2202;50.866;12.750;2023-04-24T01:54:15;10.60;95.30
4376;DHT22;2202;50.866;12.750;2023-04-24T01:56:44;10.60;95.00
4376;DHT22;2202;50.866;12.750;2023-04-24T01:59:12;10.60;95.20
4376;DHT22;2202;50.866;12.750;2023-04-24T02:01:39;10.50;95.30
4376;DHT22;2202;50.866;12.750;2023-04-24T02:04:07;10.50;95.20
4376;DHT22;2202;50.866;12.750;2023-04-24T02:06:34;10.50;95.20
4376;DHT22;2202;50.866;12.750;2023-04-24T02:09:01;10.50;95.30
4376;DHT22;2202;50.866;12.750;2023-04-24T02:11:29;10.40;95.50
4376;DHT22;2202;50.866;12.750;2023-04-24T02:13:58;10.40;95.50
4376;DHT22;2202;50.866;12.750;2023-04-24T02:16:24;10.40;95.40
4376;DHT22;2202;50.866;12.750;2023-04-24T02:18:51;10.30;95.50
4376;DHT22;2202;50.866;12.750;2023-04-24T02:21:18;10.30;95.60
4376;DHT22;2202;50.866;12.750;2023-04-24T02:23:45;10.20;95.80
4376;DHT22;2202;50.866;12.750;2023-04-24T02:26:12;10.20;95.90
4376;DHT22;2202;50.866;12.750;2023-04-24T02:28:38;10.20;95.90
4376;DHT22;2202;50.866;12.750;2023-04-24T02:31:07;10.20;95.60
4376;DHT22;2202;50.866;12.750;2023-04-24T02:33:33;10.20;95.50
4376;DHT22;2202;50.866;12.750;2023-04-24T02:36:00;10.20;95.30
4376;DHT22;2202;50.866;12.750;2023-04-24T02:38:28;10.30;95.00
4376;DHT22;2202;50.866;12.750;2023-04-24T02:40:55;10.30;94.80
4376;DHT22;2202;50.866;12.750;2023-04-24T02:43:22;10.20;94.60
4376;DHT22;2202;50.866;12.750;2023-04-24T02:45:49;10.20;94.70
4376;DHT22;2202;50.866;12.750;2023-04-24T02:48:17;10.20;94.60
4376;DHT22;2202;50.866;12.750;2023-04-24T02:50:44;10.10;94.80
4376;DHT22;2202;50.866;12.750;2023-04-24T02:53:11;10.10;94.70
4376;DHT22;2202;50.866;12.750;2023-04-24T02:55:38;10.10;94.60
4376;DHT22;2202;50.866;12.750;2023-04-24T02:58:05;10.00;94.80
4376;DHT22;2202;50.866;12.750;2023-04-24T03:00:32;10.10;94.90
4376;DHT22;2202;50.866;12.750;2023-04-24T03:02:59;10.20;94.50
4376;DHT22;2202;50.866;12.750;2023-04-24T03:05:27;10.10;94.20
4376;DHT22;2202;50.866;12.750;2023-04-24T03:07:56;10.00;94.70
4376;DHT22;2202;50.866;12.750;2023-04-24T03:10:23;9.80;95.30
4376;DHT22;2202;50.866;12.750;2023-04-24T03:12:50;9.80;95.50
4376;DHT22;2202;50.866;12.750;2023-04-24T03:15:17;9.80;95.50
4376;DHT22;2202;50.866;12.750;2023-04-24T03:17:43;9.90;95.40
4376;DHT22;2202;50.866;12.750;2023-04-24T03:20:10;9.80;95.40
4376;DHT22;2202;50.866;12.750;2023-04-24T03:22:39;9.80;95.50
4376;DHT22;2202;50.866;12.750;2023-04-24T03:25:06;9.80;95.50
4376;DHT22;2202;50.866;12.750;2023-04-24T03:27:34;9.70;95.60
4376;DHT22;2202;50.866;12.750;2023-04-24T03:30:01;9.70;95.80
4376;DHT22;2202;50.866;12.750;2023-04-24T03:32:28;9.70;95.90
4376;DHT22;2202;50.866;12.750;2023-04-24T03:34:57;9.70;95.90
4376;DHT22;2202;50.866;12.750;2023-04-24T03:37:24;9.70;96.00
4376;DHT22;2202;50.866;12.750;2023-04-24T03:39:53;9.70;96.00
4376;DHT22;2202;50.866;12.750;2023-04-24T03:42:20;9.70;96.00
4376;DHT22;2202;50.866;12.750;2023-04-24T03:44:46;9.70;96.00
4376;DHT22;2202;50.866;12.750;2023-04-24T03:47:13;9.80;95.90
4376;DHT22;2202;50.866;12.750;2023-04-24T03:49:40;9.80;95.80
4376;DHT22;2202;50.866;12.750;2023-04-24T03:52:07;9.80;95.80
4376;DHT22;2202;50.866;12.750;2023-04-24T03:54:34;9.90;95.70
4376;DHT22;2202;50.866;12.750;2023-04-24T03:57:02;9.90;95.60
4376;DHT22;2202;50.866;12.750;2023-04-24T03:59:30;9.80;95.50
4376;DHT22;2202;50.866;12.750;2023-04-24T04:01:57;9.90;95.20
4376;DHT22;2202;50.866;12.750;2023-04-24T04:04:23;9.90;95.10
4376;DHT22;2202;50.866;12.750;2023-04-24T04:06:50;9.90;95.10
4376;DHT22;2202;50.866;12.750;2023-04-24T04:09:17;9.90;94.90
4376;DHT22;2202;50.866;12.750;2023-04-24T04:11:44;9.90;95.00
4376;DHT22;2202;50.866;12.750;2023-04-24T04:14:12;9.90;95.10
4376;DHT22;2202;50.866;12.750;2023-04-24T04:16:39;9.80;95.40
4376;DHT22;2202;50.866;12.750;2023-04-24T04:19:06;9.70;95.50
4376;DHT22;2202;50.866;12.750;2023-04-24T04:21:33;9.80;95.40
4376;DHT22;2202;50.866;12.750;2023-04-24T04:23:59;9.80;95.10
4376;DHT22;2202;50.866;12.750;2023-04-24T04:26:26;9.80;95.10
4376;DHT22;2202;50.866;12.750;2023-04-24T04:28:53;9.80;95.10
4376;DHT22;2202;50.866;12.750;2023-04-24T04:31:21;9.80;95.20
4376;DHT22;2202;50.866;12.750;2023-04-24T04:33:48;9.80;95.30
4376;DHT22;2202;50.866;12.750;2023-04-24T04:36:15;9.80;95.30
4376;DHT22;2202;50.866;12.750;2023-04-24T04:38:43;9.80;95.20
4376;DHT22;2202;50.866;12.750;2023-04-24T04:41:10;9.90;95.00
4376;DHT22;2202;50.866;12.750;2023-04-24T04:43:37;9.90;95.00
4376;DHT22;2202;50.866;12.750;2023-04-24T04:46:06;9.90;94.80
4376;DHT22;2202;50.866;12.750;2023-04-24T04:48:35;9.90;94.80
4376;DHT22;2202;50.866;12.750;2023-04-24T04:51:02;9.90;94.80
4376;DHT22;2202;50.866;12.750;2023-04-24T04:53:29;10.00;94.50
4376;DHT22;2202;50.866;12.750;2023-04-24T04:55:56;10.10;94.20
4376;DHT22;2202;50.866;12.750;2023-04-24T04:58:23;10.20;94.10
4376;DHT22;2202;50.866;12.750;2023-04-24T05:00:49;10.20;93.70
4376;DHT22;2202;50.866;12.750;2023-04-24T05:03:16;10.30;93.30
4376;DHT22;2202;50.866;12.750;2023-04-24T05:05:44;10.40;93.20
4376;DHT22;2202;50.866;12.750;2023-04-24T05:08:11;10.30;93.30
4376;DHT22;2202;50.866;12.750;2023-04-24T05:10:38;10.20;93.40
4376;DHT22;2202;50.866;12.750;2023-04-24T05:13:05;10.20;93.60
4376;DHT22;2202;50.866;12.750;2023-04-24T05:15:32;10.20;93.80
4376;DHT22;2202;50.866;12.750;2023-04-24T05:17:59;10.20;93.50
4376;DHT22;2202;50.866;12.750;2023-04-24T05:20:25;10.20;93.60
4376;DHT22;2202;50.866;12.750;2023-04-24T05:22:54;10.30;93.40
4376;DHT22;2202;50.866;12.750;2023-04-24T05:25:20;10.20;93.40
4376;DHT22;2202;50.866;12.750;2023-04-24T05:27:47;10.20;93.30
4376;DHT22;2202;50.866;12.750;2023-04-24T05:30:14;10.30;93.40
4376;DHT22;2202;50.866;12.750;2023-04-24T05:32:41;10.30;93.00
4376;DHT22;2202;50.866;12.750;2023-04-24T05:35:08;10.30;93.20
4376;DHT22;2202;50.866;12.750;2023-04-24T05:37:35;10.30;93.10
4376;DHT22;2202;50.866;12.750;2023-04-24T05:40:04;10.40;93.30
4376;DHT22;2202;50.866;12.750;2023-04-24T05:42:31;10.40;93.10
4376;DHT22;2202;50.866;12.750;2023-04-24T05:44:58;10.40;92.80
4376;DHT22;2202;50.866;12.750;2023-04-24T05:47:25;10.50;92.80
4376;DHT22;2202;50.866;12.750;2023-04-24T05:49:52;10.50;92.80
4376;DHT22;2202;50.866;12.750;2023-04-24T05:52:19;10.60;92.50
4376;DHT22;2202;50.866;12.750;2023-04-24T05:54:46;10.60;93.10
4376;DHT22;2202;50.866;12.750;2023-04-24T05:57:14;10.70;92.80
4376;DHT22;2202;50.866;12.750;2023-04-24T05:59:41;10.80;92.50
4376;DHT22;2202;50.866;12.750;2023-04-24T06:02:08;10.80;92.20
4376;DHT22;2202;50.866;12.750;2023-04-24T06:04:34;10.90;91.90
4376;DHT22;2202;50.866;12.750;2023-04-24T06:07:02;11.00;91.50
4376;DHT22;2202;50.866;12.750;2023-04-24T06:09:28;11.00;91.60
4376;DHT22;2202;50.866;12.750;2023-04-24T06:11:55;11.10;90.90
4376;DHT22;2202;50.866;12.750;2023-04-24T06:14:24;11.20;90.40
4376;DHT22;2202;50.866;12.750;2023-04-24T06:16:51;11.00;90.70
4376;DHT22;2202;50.866;12.750;2023-04-24T06:19:17;11.00;91.30
4376;DHT22;2202;50.866;12.750;2023-04-24T06:21:45;11.00;91.00
4376;DHT22;2202;50.866;12.750;2023-04-24T06:24:14;10.90;91.40
4376;DHT22;2202;50.866;12.750;2023-04-24T06:26:41;10.90;91.60
4376;DHT22;2202;50.866;12.750;2023-04-24T06:29:08;10.90;91.20
4376;DHT22;2202;50.866;12.750;2023-04-24T06:31:36;10.90;91.40
4376;DHT22;2202;50.866;12.750;2023-04-24T06:34:03;11.00;91.20
4376;DHT22;2202;50.866;12.750;2023-04-24T06:36:30;11.00;90.80
4376;DHT22;2202;50.866;12.750;2023-04-24T06:38:59;11.00;90.90
4376;DHT22;2202;50.866;12.750;2023-04-24T06:41:27;11.00;91.30
4376;DHT22;2202;50.866;12.750;2023-04-24T06:43:54;11.10;90.70
4376;DHT22;2202;50.866;12.750;2023-04-24T06:46:21;11.10;90.50
4376;DHT22;2202;50.866;12.750;2023-04-24T06:48:52;11.20;90.10
4376;DHT22;2202;50.866;12.750;2023-04-24T06:51:21;11.20;89.80
4376;DHT22;2202;50.866;12.750;2023-04-24T06:53:48;11.20;90.00
4376;DHT22;2202;50.866;12.750;2023-04-24T06:56:15;11.10;89.80
4376;DHT22;2202;50.866;12.750;2023-04-24T06:58:42;11.20;90.00
4376;DHT22;2202;50.866;12.750;2023-04-24T07:01:09;11.30;90.00
4376;DHT22;2202;50.866;12.750;2023-04-24T07:03:36;11.30;89.20
4376;DHT22;2202;50.866;12.750;2023-04-24T07:06:05;11.40;88.80
4376;DHT22;2202;50.866;12.750;2023-04-24T07:08:32;11.40;88.20
4376;DHT22;2202;50.866;12.750;2023-04-24T07:11:00;11.50;88.60
4376;DHT22;2202;50.866;12.750;2023-04-24T07:13:27;11.40;89.60
4376;DHT22;2202;50.866;12.750;2023-04-24T07:15:54;11.50;87.40
4376;DHT22;2202;50.866;12.750;2023-04-24T07:18:22;11.50;88.40
4376;DHT22;2202;50.866;12.750;2023-04-24T07:20:49;11.50;87.80
4376;DHT22;2202;50.866;12.750;2023-04-24T07:23:18;11.50;88.20
4376;DHT22;2202;50.866;12.750;2023-04-24T07:25:44;11.60;87.60
4376;DHT22;2202;50.866;12.750;2023-04-24T07:28:12;11.70;87.20
4376;DHT22;2202;50.866;12.750;2023-04-24T07:30:39;11.60;88.60
4376;DHT22;2202;50.866;12.750;2023-04-24T07:33:06;11.60;87.00
4376;DHT22;2202;50.866;12.750;2023-04-24T07:35:33;11.50;87.20
4376;DHT22;2202;50.866;12.750;2023-04-24T07:38:00;11.60;88.20
4376;DHT22;2202;50.866;12.750;2023-04-24T07:40:29;11.60;87.40
4376;DHT22;2202;50.866;12.750;2023-04-24T07:42:56;11.70;85.00
4376;DHT22;2202;50.866;12.750;2023-04-24T07:45:23;11.70;85.80
4376;DHT22;2202;50.866;12.750;2023-04-24T07:47:51;11.90;85.40
4376;DHT22;2202;50.866;12.750;2023-04-24T07:50:18;11.90;84.00
4376;DHT22;2202;50.866;12.750;2023-04-24T07:52:45;12.00;84.20
4376;DHT22;2202;50.866;12.750;2023-04-24T07:55:13;12.00;83.60
4376;DHT22;2202;50.866;12.750;2023-04-24T07:57:41;12.10;84.00
4376;DHT22;2202;50.866;12.750;2023-04-24T08:00:09;12.10;82.60
4376;DHT22;2202;50.866;12.750;2023-04-24T08:02:36;12.20;81.00
4376;DHT22;2202;50.866;12.750;2023-04-24T08:05:03;12.20;80.00
4376;DHT22;2202;50.866;12.750;2023-04-24T08:07:30;12.20;81.00
4376;DHT22;2202;50.866;12.750;2023-04-24T08:09:56;12.20;82.00
4376;DHT22;2202;50.866;12.750;2023-04-24T08:12:24;12.20;81.80
4376;DHT22;2202;50.866;12.750;2023-04-24T08:14:53;12.30;81.20
4376;DHT22;2202;50.866;12.750;2023-04-24T08:17:20;12.40;81.40
4376;DHT22;2202;50.866;12.750;2023-04-24T08:19:47;12.40;81.40
4376;DHT22;2202;50.866;12.750;2023-04-24T08:22:14;12.30;79.20
4376;DHT22;2202;50.866;12.750;2023-04-24T08:24:41;12.30;79.40
4376;DHT22;2202;50.866;12.750;2023-04-24T08:27:09;12.30;78.80
4376;DHT22;2202;50.866;12.750;2023-04-24T08:29:36;12.10;79.40
4376;DHT22;2202;50.866;12.750;2023-04-24T08:32:04;12.10;81.00
4376;DHT22;2202;50.866;12.750;2023-04-24T08:34:31;12.10;82.20
4376;DHT22;2202;50.866;12.750;2023-04-24T08:36:59;12.30;80.40
4376;DHT22;2202;50.866;12.750;2023-04-24T08:39:26;12.40;80.40
4376;DHT22;2202;50.866;12.750;2023-04-24T08:41:53;12.40;78.00
4376;DHT22;2202;50.866;12.750;2023-04-24T08:44:20;12.30;79.00
4376;DHT22;2202;50.866;12.750;2023-04-24T08:46:48;12.50;79.80
4376;DHT22;2202;50.866;12.750;2023-04-24T08:49:18;12.60;78.60
4376;DHT22;2202;50.866;12.750;2023-04-24T08:51:45;12.70;78.00
4376;DHT22;2202;50.866;12.750;2023-04-24T08:54:13;12.70;77.20
4376;DHT22;2202;50.866;12.750;2023-04-24T08:56:41;12.80;77.00
4376;DHT22;2202;50.866;12.750;2023-04-24T08:59:10;12.60;76.80
4376;DHT22;2202;50.866;12.750;2023-04-24T09:01:38;12.60;77.60
4376;DHT22;2202;50.866;12.750;2023-04-24T09:04:07;12.60;78.40
4376;DHT22;2202;50.866;12.750;2023-04-24T09:06:36;12.70;80.00
4376;DHT22;2202;50.866;12.750;2023-04-24T09:09:03;12.80;80.00
4376;DHT22;2202;50.866;12.750;2023-04-24T09:11:31;13.10;76.20
4376;DHT22;2202;50.866;12.750;2023-04-24T09:13:58;13.20;75.40
4376;DHT22;2202;50.866;12.750;2023-04-24T09:16:26;13.30;74.20
4376;DHT22;2202;50.866;12.750;2023-04-24T09:18:53;13.20;75.80
4376;DHT22;2202;50.866;12.750;2023-04-24T09:21:20;13.30;76.00
4376;DHT22;2202;50.866;12.750;2023-04-24T09:23:57;13.30;74.20
4376;DHT22;2202;50.866;12.750;2023-04-24T09:26:24;13.10;74.20
4376;DHT22;2202;50.866;12.750;2023-04-24T09:28:53;13.10;74.00
4376;DHT22;2202;50.866;12.750;2023-04-24T09:31:20;13.20;77.20
4376;DHT22;2202;50.866;12.750;2023-04-24T09:33:54;13.40;75.80
4376;DHT22;2202;50.866;12.750;2023-04-24T09:36:27;13.40;73.20
4376;DHT22;2202;50.866;12.750;2023-04-24T09:38:57;13.30;68.40
4376;DHT22;2202;50.866;12.750;2023-04-24T09:41:25;13.00;70.80
4376;DHT22;2202;50.866;12.750;2023-04-24T09:43:54;12.80;71.00
4376;DHT22;2202;50.866;12.750;2023-04-24T09:46:21;12.80;71.40
4376;DHT22;2202;50.866;12.750;2023-04-24T09:48:55;12.80;71.60
4376;DHT22;2202;50.866;12.750;2023-04-24T09:51:34;12.90;72.80
4376;DHT22;2202;50.866;12.750;2023-04-24T09:54:04;13.20;69.00
4376;DHT22;2202;50.866;12.750;2023-04-24T09:56:33;13.40;68.00
4376;DHT22;2202;50.866;12.750;2023-04-24T09:59:07;13.60;70.00
4376;DHT22;2202;50.866;12.750;2023-04-24T10:01:34;13.60;66.80
4376;DHT22;2202;50.866;12.750;2023-04-24T10:04:02;13.60;67.80
4376;DHT22;2202;50.866;12.750;2023-04-24T10:06:33;13.50;66.40
4376;DHT22;2202;50.866;12.750;2023-04-24T10:09:01;13.50;68.60
4376;DHT22;2202;50.866;12.750;2023-04-24T10:11:30;13.50;68.00
4376;DHT22;2202;50.866;12.750;2023-04-24T10:13:57;13.30;64.40
4376;DHT22;2202;50.866;12.750;2023-04-24T10:16:25;12.90;65.80
4376;DHT22;2202;50.866;12.750;2023-04-24T10:18:54;12.80;68.20
4376;DHT22;2202;50.866;12.750;2023-04-24T10:21:21;12.70;68.60
4376;DHT22;2202;50.866;12.750;2023-04-24T10:23:49;12.80;69.00
4376;DHT22;2202;50.866;12.750;2023-04-24T10:26:17;13.10;69.40
4376;DHT22;2202;50.866;12.750;2023-04-24T10:28:47;13.50;63.00
4376;DHT22;2202;50.866;12.750;2023-04-24T10:31:14;13.80;61.40
4376;DHT22;2202;50.866;12.750;2023-04-24T10:33:43;14.00;59.80
4376;DHT22;2202;50.866;12.750;2023-04-24T10:36:10;14.20;59.20
4376;DHT22;2202;50.866;12.750;2023-04-24T10:38:39;13.90;57.40
4376;DHT22;2202;50.866;12.750;2023-04-24T10:41:08;13.60;57.60
4376;DHT22;2202;50.866;12.750;2023-04-24T10:43:40;13.30;58.90
4376;DHT22;2202;50.866;12.750;2023-04-24T10:46:08;13.20;62.00
4376;DHT22;2202;50.866;12.750;2023-04-24T10:48:42;13.20;61.60
4376;DHT22;2202;50.866;12.750;2023-04-24T10:51:11;13.30;60.10
4376;DHT22;2202;50.866;12.750;2023-04-24T10:53:39;13.40;60.40
4376;DHT22;2202;50.866;12.750;2023-04-24T10:56:07;13.50;59.20
4376;DHT22;2202;50.866;12.750;2023-04-24T10:58:40;13.50;59.60
4376;DHT22;2202;50.866;12.750;2023-04-24T11:01:23;13.80;59.80
4376;DHT22;2202;50.866;12.750;2023-04-24T11:03:53;14.00;57.60
4376;DHT22;2202;50.866;12.750;2023-04-24T11:06:28;14.10;56.60
4376;DHT22;2202;50.866;12.750;2023-04-24T11:09:02;14.10;55.50
4376;DHT22;2202;50.866;12.750;2023-04-24T11:11:31;14.00;54.80
4376;DHT22;2202;50.866;12.750;2023-04-24T11:14:03;13.60;54.40
4376;DHT22;2202;50.866;12.750;2023-04-24T11:16:34;13.70;55.90
4376;DHT22;2202;50.866;12.750;2023-04-24T11:19:04;13.80;53.20
4376;DHT22;2202;50.866;12.750;2023-04-24T11:21:32;13.70;54.30
4376;DHT22;2202;50.866;12.750;2023-04-24T11:24:26;13.70;50.30
4376;DHT22;2202;50.866;12.750;2023-04-24T11:26:54;13.50;51.90
4376;DHT22;2202;50.866;12.750;2023-04-24T11:29:22;13.40;53.70
4376;DHT22;2202;50.866;12.750;2023-04-24T11:31:51;13.30;52.50
4376;DHT22;2202;50.866;12.750;2023-04-24T11:34:18;13.10;53.90
4376;DHT22;2202;50.866;12.750;2023-04-24T11:36:45;13.20;55.50
4376;DHT22;2202;50.866;12.750;2023-04-24T11:39:13;13.00;54.80
4376;DHT22;2202;50.866;12.750;2023-04-24T11:41:41;13.20;57.80
4376;DHT22;2202;50.866;12.750;2023-04-24T11:44:09;13.30;58.50
4376;DHT22;2202;50.866;12.750;2023-04-24T11:46:36;13.40;56.20
4376;DHT22;2202;50.866;12.750;2023-04-24T11:49:06;13.60;51.40
4376;DHT22;2202;50.866;12.750;2023-04-24T11:51:34;13.80;51.90
4376;DHT22;2202;50.866;12.750;2023-04-24T11:54:01;13.90;52.50
4376;DHT22;2202;50.866;12.750;2023-04-24T11:56:28;13.70;52.50
4376;DHT22;2202;50.866;12.750;2023-04-24T11:58:55;13.50;53.90
4376;DHT22;2202;50.866;12.750;2023-04-24T12:01:22;13.60;54.80
4376;DHT22;2202;50.866;12.750;2023-04-24T12:03:49;13.80;54.80
4376;DHT22;2202;50.866;12.750;2023-04-24T12:06:18;13.90;50.70
4376;DHT22;2202;50.866;12.750;2023-04-24T12:08:46;13.90;50.20
4376;DHT22;2202;50.866;12.750;2023-04-24T12:11:15;13.80;50.70
4376;DHT22;2202;50.866;12.750;2023-04-24T12:13:44;13.80;48.20
4376;DHT22;2202;50.866;12.750;2023-04-24T12:16:11;14.10;49.80
4376;DHT22;2202;50.866;12.750;2023-04-24T12:18:42;14.30;47.90
4376;DHT22;2202;50.866;12.750;2023-04-24T12:21:18;14.60;49.30
4376;DHT22;2202;50.866;12.750;2023-04-24T12:23:46;14.80;46.60
4376;DHT22;2202;50.866;12.750;2023-04-24T12:26:16;14.60;46.30
4376;DHT22;2202;50.866;12.750;2023-04-24T12:28:46;14.10;48.60
4376;DHT22;2202;50.866;12.750;2023-04-24T12:31:13;14.10;49.10
4376;DHT22;2202;50.866;12.750;2023-04-24T12:33:40;14.00;48.20
4376;DHT22;2202;50.866;12.750;2023-04-24T12:36:10;14.10;50.30
4376;DHT22;2202;50.866;12.750;2023-04-24T12:38:39;14.40;48.90
4376;DHT22;2202;50.866;12.750;2023-04-24T12:41:11;14.60;52.30
4376;DHT22;2202;50.866;12.750;2023-04-24T12:43:38;14.50;50.90
4376;DHT22;2202;50.866;12.750;2023-04-24T12:46:16;14.30;49.30
4376;DHT22;2202;50.866;12.750;2023-04-24T12:48:43;14.50;53.20
4376;DHT22;2202;50.866;12.750;2023-04-24T12:51:10;14.90;51.90
4376;DHT22;2202;50.866;12.750;2023-04-24T12:53:38;15.40;52.30
4376;DHT22;2202;50.866;12.750;2023-04-24T12:56:05;15.50;46.40
4376;DHT22;2202;50.866;12.750;2023-04-24T12:58:32;15.60;45.20
4376;DHT22;2202;50.866;12.750;2023-04-24T13:00:59;15.70;48.20
4376;DHT22;2202;50.866;12.750;2023-04-24T13:03:26;15.80;42.40
4376;DHT22;2202;50.866;12.750;2023-04-24T13:05:53;15.20;43.20
4376;DHT22;2202;50.866;12.750;2023-04-24T13:08:19;14.70;45.60
4376;DHT22;2202;50.866;12.750;2023-04-24T13:10:48;14.40;46.80
4376;DHT22;2202;50.866;12.750;2023-04-24T13:13:16;14.00;48.80
4376;DHT22;2202;50.866;12.750;2023-04-24T13:15:43;13.90;50.20
4376;DHT22;2202;50.866;12.750;2023-04-24T13:18:10;13.90;49.80
4376;DHT22;2202;50.866;12.750;2023-04-24T13:20:37;13.90;50.90
4376;DHT22;2202;50.866;12.750;2023-04-24T13:23:03;13.90;49.30
4376;DHT22;2202;50.866;12.750;2023-04-24T13:25:35;13.80;49.60
4376;DHT22;2202;50.866;12.750;2023-04-24T13:28:04;13.60;51.90
4376;DHT22;2202;50.866;12.750;2023-04-24T13:30:31;13.80;53.70
4376;DHT22;2202;50.866;12.750;2023-04-24T13:32:58;14.20;51.20
4376;DHT22;2202;50.866;12.750;2023-04-24T13:35:25;14.20;49.60
4376;DHT22;2202;50.866;12.750;2023-04-24T13:37:51;14.10;48.80
4376;DHT22;2202;50.866;12.750;2023-04-24T13:40:18;13.80;49.60
4376;DHT22;2202;50.866;12.750;2023-04-24T13:42:45;13.80;48.40
4376;DHT22;2202;50.866;12.750;2023-04-24T13:45:13;13.80;51.20
4376;DHT22;2202;50.866;12.750;2023-04-24T13:47:40;14.00;47.50
4376;DHT22;2202;50.866;12.750;2023-04-24T13:50:08;14.00;47.00
4376;DHT22;2202;50.866;12.750;2023-04-24T13:52:35;13.90;48.80
4376;DHT22;2202;50.866;12.750;2023-04-24T13:55:02;13.80;47.50
4376;DHT22;2202;50.866;12.750;2023-04-24T13:57:29;13.70;50.90
4376;DHT22;2202;50.866;12.750;2023-04-24T13:59:57;13.60;50.00
4376;DHT22;2202;50.866;12.750;2023-04-24T14:02:28;13.50;51.80
4376;DHT22;2202;50.866;12.750;2023-04-24T14:04:54;13.70;50.70
4376;DHT22;2202;50.866;12.750;2023-04-24T14:07:21;13.50;50.70
4376;DHT22;2202;50.866;12.750;2023-04-24T14:09:48;13.40;52.70
4376;DHT22;2202;50.866;12.750;2023-04-24T14:12:15;13.50;51.40
4376;DHT22;2202;50.866;12.750;2023-04-24T14:14:45;13.40;48.60
4376;DHT22;2202;50.866;12.750;2023-04-24T14:17:12;13.20;48.20
4376;DHT22;2202;50.866;12.750;2023-04-24T14:19:40;13.40;49.60
4376;DHT22;2202;50.866;12.750;2023-04-24T14:22:07;13.40;47.20
4376;DHT22;2202;50.866;12.750;2023-04-24T14:24:34;13.30;46.10
4376;DHT22;2202;50.866;12.750;2023-04-24T14:27:01;13.30;48.20
4376;DHT22;2202;50.866;12.750;2023-04-24T14:29:28;13.20;48.90
4376;DHT22;2202;50.866;12.750;2023-04-24T14:31:55;13.30;49.10
4376;DHT22;2202;50.866;12.750;2023-04-24T14:34:22;13.40;49.80
4376;DHT22;2202;50.866;12.750;2023-04-24T14:36:50;13.30;50.00
4376;DHT22;2202;50.866;12.750;2023-04-24T14:39:17;13.40;51.80
4376;DHT22;2202;50.866;12.750;2023-04-24T14:41:43;13.40;52.70
4376;DHT22;2202;50.866;12.750;2023-04-24T14:44:10;13.40;50.70
4376;DHT22;2202;50.866;12.750;2023-04-24T14:46:37;13.50;49.50
4376;DHT22;2202;50.866;12.750;2023-04-24T14:49:04;13.40;50.70
4376;DHT22;2202;50.866;12.750;2023-04-24T14:51:31;13.30;51.80
4376;DHT22;2202;50.866;12.750;2023-04-24T14:53:59;13.20;52.10
4376;DHT22;2202;50.866;12.750;2023-04-24T14:56:26;13.20;52.30
4376;DHT22;2202;50.866;12.750;2023-04-24T14:58:53;13.20;52.70
4376;DHT22;2202;50.866;12.750;2023-04-24T15:01:19;13.20;51.10
4376;DHT22;2202;50.866;12.750;2023-04-24T15:03:46;13.30;51.90
4376;DHT22;2202;50.866;12.750;2023-04-24T15:06:13;13.30;51.60
4376;DHT22;2202;50.866;12.750;2023-04-24T15:08:40;13.30;51.60
4376;DHT22;2202;50.866;12.750;2023-04-24T15:11:09;13.10;50.70
4376;DHT22;2202;50.866;12.750;2023-04-24T15:13:36;13.00;49.50
4376;DHT22;2202;50.866;12.750;2023-04-24T15:16:03;13.00;50.70
4376;DHT22;2202;50.866;12.750;2023-04-24T15:18:30;13.20;50.70
4376;DHT22;2202;50.866;12.750;2023-04-24T15:20:57;13.40;51.10
4376;DHT22;2202;50.866;12.750;2023-04-24T15:23:24;13.40;48.80
4376;DHT22;2202;50.866;12.750;2023-04-24T15:25:50;13.40;50.20
4376;DHT22;2202;50.866;12.750;2023-04-24T15:28:19;13.40;50.20
4376;DHT22;2202;50.866;12.750;2023-04-24T15:30:47;13.10;51.80
4376;DHT22;2202;50.866;12.750;2023-04-24T15:33:14;13.10;52.10
4376;DHT22;2202;50.866;12.750;2023-04-24T15:35:40;13.00;53.70
4376;DHT22;2202;50.866;12.750;2023-04-24T15:38:07;12.80;53.50
4376;DHT22;2202;50.866;12.750;2023-04-24T15:40:34;12.70;53.50
4376;DHT22;2202;50.866;12.750;2023-04-24T15:43:01;12.50;55.10
4376;DHT22;2202;50.866;12.750;2023-04-24T15:45:29;12.30;55.70
4376;DHT22;2202;50.866;12.750;2023-04-24T15:47:57;12.10;57.30
4376;DHT22;2202;50.866;12.750;2023-04-24T15:50:25;11.90;59.90